sensor_id;sensor_type;location;lat;lon;timestamp;P1;durP1;ratioP1;P2;durP2;ratioP2
5981;SDS011;3018;48.730;9.336;2023-02-28T00:01:06;2.30;;;2.10;;
5981;SDS011;3018;48.730;9.336;2023-02-28T00:03:34;3.95;;;2.80;;
5981;SDS011;3018;48.730;9.336;2023-02-28T00:06:01;2.03;;;1.92;;
5981;SDS011;3018;48.730;9.336;2023-02-28T00:08:27;2.67;;;2.47;;
5981;SDS011;3018;48.730;9.336;2023-02-28T00:10:54;2.70;;;2.40;;
5981;SDS011;3018;48.730;9.336;2023-02-28T00:13:20;2.90;;;2.03;;
5981;SDS011;3018;48.730;9.336;2023-02-28T00:15:46;3.05;;;2.50;;
5981;SDS011;3018;48.730;9.336;2023-02-28T00:18:12;2.80;;;2.60;;
5981;SDS011;3018;48.730;9.336;2023-02-28T00:20:40;4.38;;;2.63;;
5981;SDS011;3018;48.730;9.336;2023-02-28T00:23:07;2.40;;;2.30;;
5981;SDS011;3018;48.730;9.336;2023-02-28T00:25:34;2.53;;;2.30;;
5981;SDS011;3018;48.730;9.336;2023-02-28T00:28:00;2.72;;;2.47;;
5981;SDS011;3018;48.730;9.336;2023-02-28T00:30:26;2.85;;;2.60;;
5981;SDS011;3018;48.730;9.336;2023-02-28T00:32:52;2.50;;;2.30;;
5981;SDS011;3018;48.730;9.336;2023-02-28T00:35:19;2.33;;;2.20;;
5981;SDS011;3018;48.730;9.336;2023-02-28T00:37:47;2.33;;;2.20;;
5981;SDS011;3018;48.730;9.336;2023-02-28T00:40:13;2.50;;;2.30;;
5981;SDS011;3018;48.730;9.336;2023-02-28T00:42:39;2.53;;;1.98;;
5981;SDS011;3018;48.730;9.336;2023-02-28T00:45:06;2.15;;;2.05;;
5981;SDS011;3018;48.730;9.336;2023-02-28T00:47:33;2.30;;;2.20;;
5981;SDS011;3018;48.730;9.336;2023-02-28T00:49:59;2.83;;;2.72;;
5981;SDS011;3018;48.730;9.336;2023-02-28T00:52:25;3.35;;;2.08;;
5981;SDS011;3018;48.730;9.336;2023-02-28T00:54:53;2.20;;;2.10;;
5981;SDS011;3018;48.730;9.336;2023-02-28T00:57:19;2.60;;;2.40;;
5981;SDS011;3018;48.730;9.336;2023-02-28T00:59:45;2.40;;;2.30;;
5981;SDS011;3018;48.730;9.336;2023-02-28T01:02:12;2.65;;;2.45;;
5981;SDS011;3018;48.730;9.336;2023-02-28T01:04:38;3.65;;;2.63;;
5981;SDS011;3018;48.730;9.336;2023-02-28T01:07:04;2.50;;;2.30;;
5981;SDS011;3018;48.730;9.336;2023-02-28T01:09:31;3.97;;;2.70;;
5981;SDS011;3018;48.730;9.336;2023-02-28T01:11:58;3.63;;;2.50;;
5981;SDS011;3018;48.730;9.336;2023-02-28T01:14:24;3.05;;;2.67;;
5981;SDS011;3018;48.730;9.336;2023-02-28T01:16:51;2.72;;;2.53;;
5981;SDS011;3018;48.730;9.336;2023-02-28T01:19:17;2.70;;;2.28;;
5981;SDS011;3018;48.730;9.336;2023-02-28T01:21:43;2.90;;;2.70;;
5981;SDS011;3018;48.730;9.336;2023-02-28T01:24:10;3.13;;;2.67;;
5981;SDS011;3018;48.730;9.336;2023-02-28T01:26:36;2.65;;;2.40;;
5981;SDS011;3018;48.730;9.336;2023-02-28T01:29:03;2.15;;;2.05;;
5981;SDS011;3018;48.730;9.336;2023-02-28T01:31:30;2.80;;;2.60;;
5981;SDS011;3018;48.730;9.336;2023-02-28T01:33:56;3.00;;;2.80;;
5981;SDS011;3018;48.730;9.336;2023-02-28T01:36:23;4.70;;;2.60;;
5981;SDS011;3018;48.730;9.336;2023-02-28T01:38:50;7.85;;;3.05;;
5981;SDS011;3018;48.730;9.336;2023-02-28T01:41:17;2.65;;;2.55;;
5981;SDS011;3018;48.730;9.336;2023-02-28T01:43:57;2.80;;;2.60;;
5981;SDS011;3018;48.730;9.336;2023-02-28T01:46:25;2.53;;;2.28;;
5981;SDS011;3018;48.730;9.336;2023-02-28T01:48:51;2.88;;;2.60;;
5981;SDS011;3018;48.730;9.336;2023-02-28T01:51:19;4.47;;;2.70;;
5981;SDS011;3018;48.730;9.336;2023-02-28T01:53:48;5.55;;;3.15;;
5981;SDS011;3018;48.730;9.336;2023-02-28T01:56:16;3.45;;;2.45;;
5981;SDS011;3018;48.730;9.336;2023-02-28T01:58:45;2.72;;;2.63;;
5981;SDS011;3018;48.730;9.336;2023-02-28T02:01:12;2.58;;;2.47;;
5981;SDS011;3018;48.730;9.336;2023-02-28T02:03:47;3.50;;;2.60;;
5981;SDS011;3018;48.730;9.336;2023-02-28T02:06:17;2.85;;;2.75;;
5981;SDS011;3018;48.730;9.336;2023-02-28T02:08:44;3.60;;;3.30;;
5981;SDS011;3018;48.730;9.336;2023-02-28T02:11:10;7.03;;;3.17;;
5981;SDS011;3018;48.730;9.336;2023-02-28T02:13:41;3.15;;;2.92;;
5981;SDS011;3018;48.730;9.336;2023-02-28T02:16:14;3.10;;;2.75;;
5981;SDS011;3018;48.730;9.336;2023-02-28T02:18:44;4.00;;;3.08;;
5981;SDS011;3018;48.730;9.336;2023-02-28T02:24:05;6.03;;;2.80;;
5981;SDS011;3018;48.730;9.336;2023-02-28T02:26:58;5.15;;;3.17;;
5981;SDS011;3018;48.730;9.336;2023-02-28T02:29:41;3.45;;;3.05;;
5981;SDS011;3018;48.730;9.336;2023-02-28T02:32:14;3.00;;;2.75;;
5981;SDS011;3018;48.730;9.336;2023-02-28T02:34:48;3.60;;;3.05;;
5981;SDS011;3018;48.730;9.336;2023-02-28T02:37:22;4.90;;;3.35;;
5981;SDS011;3018;48.730;9.336;2023-02-28T02:39:54;3.08;;;2.88;;
5981;SDS011;3018;48.730;9.336;2023-02-28T02:42:26;3.28;;;2.95;;
5981;SDS011;3018;48.730;9.336;2023-02-28T02:44:55;4.85;;;3.42;;
5981;SDS011;3018;48.730;9.336;2023-02-28T02:47:24;3.10;;;2.90;;
5981;SDS011;3018;48.730;9.336;2023-02-28T02:49:53;3.88;;;3.13;;
5981;SDS011;3018;48.730;9.336;2023-02-28T02:52:22;4.53;;;3.00;;
5981;SDS011;3018;48.730;9.336;2023-02-28T02:54:49;2.97;;;2.75;;
5981;SDS011;3018;48.730;9.336;2023-02-28T02:57:20;4.13;;;3.00;;
5981;SDS011;3018;48.730;9.336;2023-02-28T02:59:47;3.33;;;3.13;;
5981;SDS011;3018;48.730;9.336;2023-02-28T03:02:14;3.22;;;3.00;;
5981;SDS011;3018;48.730;9.336;2023-02-28T03:04:42;3.72;;;3.42;;
5981;SDS011;3018;48.730;9.336;2023-02-28T03:07:10;4.20;;;3.00;;
5981;SDS011;3018;48.730;9.336;2023-02-28T03:09:37;3.50;;;3.30;;
5981;SDS011;3018;48.730;9.336;2023-02-28T03:12:04;3.45;;;3.15;;
5981;SDS011;3018;48.730;9.336;2023-02-28T03:14:35;4.07;;;3.67;;
5981;SDS011;3018;48.730;9.336;2023-02-28T03:19:53;4.43;;;3.67;;
5981;SDS011;3018;48.730;9.336;2023-02-28T03:25:08;3.03;;;2.80;;
5981;SDS011;3018;48.730;9.336;2023-02-28T03:27:40;3.58;;;3.05;;
5981;SDS011;3018;48.730;9.336;2023-02-28T03:30:09;3.75;;;3.30;;
5981;SDS011;3018;48.730;9.336;2023-02-28T03:32:36;3.72;;;3.35;;
5981;SDS011;3018;48.730;9.336;2023-02-28T03:35:06;5.43;;;3.72;;
5981;SDS011;3018;48.730;9.336;2023-02-28T03:37:35;5.22;;;3.50;;
5981;SDS011;3018;48.730;9.336;2023-02-28T03:40:04;3.22;;;2.97;;
5981;SDS011;3018;48.730;9.336;2023-02-28T03:42:35;3.83;;;3.53;;
5981;SDS011;3018;48.730;9.336;2023-02-28T03:45:04;4.00;;;3.65;;
5981;SDS011;3018;48.730;9.336;2023-02-28T03:47:33;3.70;;;3.40;;
5981;SDS011;3018;48.730;9.336;2023-02-28T03:50:02;3.65;;;3.45;;
5981;SDS011;3018;48.730;9.336;2023-02-28T03:52:33;3.58;;;3.38;;
5981;SDS011;3018;48.730;9.336;2023-02-28T03:55:00;3.95;;;3.42;;
5981;SDS011;3018;48.730;9.336;2023-02-28T03:57:32;4.45;;;3.50;;
5981;SDS011;3018;48.730;9.336;2023-02-28T04:00:03;4.30;;;3.78;;
5981;SDS011;3018;48.730;9.336;2023-02-28T04:02:30;3.72;;;3.45;;
5981;SDS011;3018;48.730;9.336;2023-02-28T04:04:57;3.92;;;3.50;;
5981;SDS011;3018;48.730;9.336;2023-02-28T04:07:24;3.50;;;3.20;;
5981;SDS011;3018;48.730;9.336;2023-02-28T04:09:51;3.70;;;3.40;;
5981;SDS011;3018;48.730;9.336;2023-02-28T04:12:17;6.07;;;4.13;;
5981;SDS011;3018;48.730;9.336;2023-02-28T04:14:44;6.38;;;4.72;;
5981;SDS011;3018;48.730;9.336;2023-02-28T04:17:11;4.90;;;4.38;;
5981;SDS011;3018;48.730;9.336;2023-02-28T04:19:38;3.80;;;3.50;;
5981;SDS011;3018;48.730;9.336;2023-02-28T04:22:04;4.75;;;4.10;;
5981;SDS011;3018;48.730;9.336;2023-02-28T04:24:30;5.00;;;4.38;;
5981;SDS011;3018;48.730;9.336;2023-02-28T04:26:57;4.50;;;3.90;;
5981;SDS011;3018;48.730;9.336;2023-02-28T04:29:25;3.92;;;3.63;;
5981;SDS011;3018;48.730;9.336;2023-02-28T04:31:52;4.55;;;4.00;;
5981;SDS011;3018;48.730;9.336;2023-02-28T04:34:19;4.88;;;4.40;;
5981;SDS011;3018;48.730;9.336;2023-02-28T04:36:46;5.10;;;4.55;;
5981;SDS011;3018;48.730;9.336;2023-02-28T04:39:14;4.43;;;4.03;;
5981;SDS011;3018;48.730;9.336;2023-02-28T04:41:40;5.18;;;3.85;;
5981;SDS011;3018;48.730;9.336;2023-02-28T04:44:06;5.35;;;4.15;;
5981;SDS011;3018;48.730;9.336;2023-02-28T04:46:33;4.30;;;4.00;;
5981;SDS011;3018;48.730;9.336;2023-02-28T04:48:59;5.82;;;3.83;;
5981;SDS011;3018;48.730;9.336;2023-02-28T04:51:27;4.25;;;3.92;;
5981;SDS011;3018;48.730;9.336;2023-02-28T04:53:53;5.03;;;4.20;;
5981;SDS011;3018;48.730;9.336;2023-02-28T04:56:19;4.65;;;4.18;;
5981;SDS011;3018;48.730;9.336;2023-02-28T04:58:46;5.82;;;4.00;;
5981;SDS011;3018;48.730;9.336;2023-02-28T05:01:16;4.50;;;4.10;;
5981;SDS011;3018;48.730;9.336;2023-02-28T05:03:42;5.28;;;4.30;;
5981;SDS011;3018;48.730;9.336;2023-02-28T05:06:09;4.85;;;4.38;;
5981;SDS011;3018;48.730;9.336;2023-02-28T05:08:37;4.90;;;4.43;;
5981;SDS011;3018;48.730;9.336;2023-02-28T05:11:05;8.00;;;5.22;;
5981;SDS011;3018;48.730;9.336;2023-02-28T05:13:31;5.90;;;5.30;;
5981;SDS011;3018;48.730;9.336;2023-02-28T05:15:58;5.45;;;4.75;;
5981;SDS011;3018;48.730;9.336;2023-02-28T05:18:24;4.60;;;4.22;;
5981;SDS011;3018;48.730;9.336;2023-02-28T05:20:50;4.60;;;4.30;;
5981;SDS011;3018;48.730;9.336;2023-02-28T05:23:16;4.55;;;4.15;;
5981;SDS011;3018;48.730;9.336;2023-02-28T05:25:45;4.80;;;4.20;;
5981;SDS011;3018;48.730;9.336;2023-02-28T05:28:11;6.47;;;5.35;;
5981;SDS011;3018;48.730;9.336;2023-02-28T05:30:37;4.90;;;4.60;;
5981;SDS011;3018;48.730;9.336;2023-02-28T05:33:03;6.53;;;5.78;;
5981;SDS011;3018;48.730;9.336;2023-02-28T05:35:30;5.47;;;4.72;;
5981;SDS011;3018;48.730;9.336;2023-02-28T05:37:56;5.13;;;4.72;;
5981;SDS011;3018;48.730;9.336;2023-02-28T05:40:22;5.47;;;4.90;;
5981;SDS011;3018;48.730;9.336;2023-02-28T05:42:50;5.30;;;4.90;;
5981;SDS011;3018;48.730;9.336;2023-02-28T05:45:17;5.80;;;4.95;;
5981;SDS011;3018;48.730;9.336;2023-02-28T05:47:43;6.00;;;4.70;;
5981;SDS011;3018;48.730;9.336;2023-02-28T05:50:09;5.97;;;5.40;;
5981;SDS011;3018;48.730;9.336;2023-02-28T05:52:36;5.30;;;4.80;;
5981;SDS011;3018;48.730;9.336;2023-02-28T05:55:02;5.70;;;5.20;;
5981;SDS011;3018;48.730;9.336;2023-02-28T05:57:29;5.60;;;5.10;;
5981;SDS011;3018;48.730;9.336;2023-02-28T05:59:56;6.60;;;4.65;;
5981;SDS011;3018;48.730;9.336;2023-02-28T06:02:23;5.72;;;5.18;;
5981;SDS011;3018;48.730;9.336;2023-02-28T06:04:49;5.90;;;5.30;;
5981;SDS011;3018;48.730;9.336;2023-02-28T06:07:15;5.97;;;5.45;;
5981;SDS011;3018;48.730;9.336;2023-02-28T06:09:42;6.18;;;5.55;;
5981;SDS011;3018;48.730;9.336;2023-02-28T06:12:09;6.00;;;4.97;;
5981;SDS011;3018;48.730;9.336;2023-02-28T06:14:36;5.32;;;4.93;;
5981;SDS011;3018;48.730;9.336;2023-02-28T06:17:05;7.50;;;5.47;;
5981;SDS011;3018;48.730;9.336;2023-02-28T06:19:31;5.95;;;5.38;;
5981;SDS011;3018;48.730;9.336;2023-02-28T06:21:57;6.32;;;5.78;;
5981;SDS011;3018;48.730;9.336;2023-02-28T06:24:25;6.32;;;5.35;;
5981;SDS011;3018;48.730;9.336;2023-02-28T06:26:53;7.00;;;5.93;;
5981;SDS011;3018;48.730;9.336;2023-02-28T06:29:19;6.20;;;5.60;;
5981;SDS011;3018;48.730;9.336;2023-02-28T06:31:45;5.93;;;5.43;;
5981;SDS011;3018;48.730;9.336;2023-02-28T06:34:13;5.95;;;5.35;;
5981;SDS011;3018;48.730;9.336;2023-02-28T06:36:40;6.90;;;5.80;;
5981;SDS011;3018;48.730;9.336;2023-02-28T06:39:06;6.80;;;5.85;;
5981;SDS011;3018;48.730;9.336;2023-02-28T06:41:33;6.30;;;5.35;;
5981;SDS011;3018;48.730;9.336;2023-02-28T06:44:03;6.88;;;6.25;;
5981;SDS011;3018;48.730;9.336;2023-02-28T06:46:30;7.55;;;6.20;;
5981;SDS011;3018;48.730;9.336;2023-02-28T06:48:56;9.82;;;6.63;;
5981;SDS011;3018;48.730;9.336;2023-02-28T06:51:24;6.43;;;5.80;;
5981;SDS011;3018;48.730;9.336;2023-02-28T06:53:52;6.47;;;5.85;;
5981;SDS011;3018;48.730;9.336;2023-02-28T06:56:18;6.63;;;5.90;;
5981;SDS011;3018;48.730;9.336;2023-02-28T06:58:46;6.85;;;6.25;;
5981;SDS011;3018;48.730;9.336;2023-02-28T07:01:13;7.68;;;6.30;;
5981;SDS011;3018;48.730;9.336;2023-02-28T07:03:39;7.07;;;6.38;;
5981;SDS011;3018;48.730;9.336;2023-02-28T07:06:05;6.82;;;6.18;;
5981;SDS011;3018;48.730;9.336;2023-02-28T07:08:33;8.07;;;6.40;;
5981;SDS011;3018;48.730;9.336;2023-02-28T07:11:00;6.70;;;5.90;;
5981;SDS011;3018;48.730;9.336;2023-02-28T07:13:27;6.60;;;6.00;;
5981;SDS011;3018;48.730;9.336;2023-02-28T07:15:53;7.80;;;6.22;;
5981;SDS011;3018;48.730;9.336;2023-02-28T07:18:20;6.85;;;6.13;;
5981;SDS011;3018;48.730;9.336;2023-02-28T07:20:46;6.80;;;6.13;;
5981;SDS011;3018;48.730;9.336;2023-02-28T07:23:13;7.57;;;6.65;;
5981;SDS011;3018;48.730;9.336;2023-02-28T07:25:40;8.95;;;7.22;;
5981;SDS011;3018;48.730;9.336;2023-02-28T07:28:06;9.48;;;6.78;;
5981;SDS011;3018;48.730;9.336;2023-02-28T07:30:33;7.50;;;6.80;;
5981;SDS011;3018;48.730;9.336;2023-02-28T07:32:59;7.53;;;6.78;;
5981;SDS011;3018;48.730;9.336;2023-02-28T07:35:26;9.75;;;7.10;;
5981;SDS011;3018;48.730;9.336;2023-02-28T07:37:52;7.60;;;6.70;;
5981;SDS011;3018;48.730;9.336;2023-02-28T07:40:18;6.80;;;6.20;;
5981;SDS011;3018;48.730;9.336;2023-02-28T07:42:46;6.95;;;6.25;;
5981;SDS011;3018;48.730;9.336;2023-02-28T07:45:12;6.78;;;6.07;;
5981;SDS011;3018;48.730;9.336;2023-02-28T07:47:39;7.97;;;6.10;;
5981;SDS011;3018;48.730;9.336;2023-02-28T07:50:05;9.18;;;7.15;;
5981;SDS011;3018;48.730;9.336;2023-02-28T07:52:32;8.80;;;7.15;;
5981;SDS011;3018;48.730;9.336;2023-02-28T07:54:58;8.73;;;6.28;;
5981;SDS011;3018;48.730;9.336;2023-02-28T07:57:24;11.10;;;6.80;;
5981;SDS011;3018;48.730;9.336;2023-02-28T07:59:52;8.88;;;6.53;;
5981;SDS011;3018;48.730;9.336;2023-02-28T08:02:19;9.85;;;7.13;;
5981;SDS011;3018;48.730;9.336;2023-02-28T08:04:45;7.88;;;7.13;;
5981;SDS011;3018;48.730;9.336;2023-02-28T08:07:13;10.15;;;6.78;;
5981;SDS011;3018;48.730;9.336;2023-02-28T08:09:39;8.98;;;7.05;;
5981;SDS011;3018;48.730;9.336;2023-02-28T08:12:06;7.68;;;6.90;;
5981;SDS011;3018;48.730;9.336;2023-02-28T08:14:32;7.47;;;6.78;;
5981;SDS011;3018;48.730;9.336;2023-02-28T08:17:00;8.65;;;6.60;;
5981;SDS011;3018;48.730;9.336;2023-02-28T08:19:27;9.02;;;6.97;;
5981;SDS011;3018;48.730;9.336;2023-02-28T08:21:53;8.55;;;6.75;;
5981;SDS011;3018;48.730;9.336;2023-02-28T08:24:19;7.95;;;6.40;;
5981;SDS011;3018;48.730;9.336;2023-02-28T08:26:45;7.25;;;6.55;;
5981;SDS011;3018;48.730;9.336;2023-02-28T08:29:12;9.82;;;7.15;;
5981;SDS011;3018;48.730;9.336;2023-02-28T08:31:38;9.10;;;7.43;;
5981;SDS011;3018;48.730;9.336;2023-02-28T08:34:06;9.25;;;7.85;;
5981;SDS011;3018;48.730;9.336;2023-02-28T08:36:33;9.05;;;6.80;;
5981;SDS011;3018;48.730;9.336;2023-02-28T08:38:59;9.23;;;7.22;;
5981;SDS011;3018;48.730;9.336;2023-02-28T08:41:25;10.63;;;7.03;;
5981;SDS011;3018;48.730;9.336;2023-02-28T08:43:52;8.20;;;7.40;;
5981;SDS011;3018;48.730;9.336;2023-02-28T08:46:18;9.30;;;8.07;;
5981;SDS011;3018;48.730;9.336;2023-02-28T08:48:45;9.90;;;7.43;;
5981;SDS011;3018;48.730;9.336;2023-02-28T08:51:13;8.07;;;6.68;;
5981;SDS011;3018;48.730;9.336;2023-02-28T08:53:41;8.75;;;7.65;;
5981;SDS011;3018;48.730;9.336;2023-02-28T08:56:08;8.35;;;7.40;;
5981;SDS011;3018;48.730;9.336;2023-02-28T08:58:34;10.25;;;7.50;;
5981;SDS011;3018;48.730;9.336;2023-02-28T09:01:07;9.82;;;7.68;;
5981;SDS011;3018;48.730;9.336;2023-02-28T09:03:33;7.57;;;6.80;;
5981;SDS011;3018;48.730;9.336;2023-02-28T09:06:00;7.28;;;6.60;;
5981;SDS011;3018;48.730;9.336;2023-02-28T09:08:28;8.43;;;7.60;;
5981;SDS011;3018;48.730;9.336;2023-02-28T09:10:55;7.82;;;7.07;;
5981;SDS011;3018;48.730;9.336;2023-02-28T09:13:22;9.63;;;7.60;;
5981;SDS011;3018;48.730;9.336;2023-02-28T09:15:49;9.38;;;7.45;;
5981;SDS011;3018;48.730;9.336;2023-02-28T09:18:15;8.30;;;6.97;;
5981;SDS011;3018;48.730;9.336;2023-02-28T09:20:42;8.05;;;7.30;;
5981;SDS011;3018;48.730;9.336;2023-02-28T09:23:09;9.73;;;7.65;;
5981;SDS011;3018;48.730;9.336;2023-02-28T09:25:37;9.15;;;7.90;;
5981;SDS011;3018;48.730;9.336;2023-02-28T09:28:03;7.95;;;7.25;;
5981;SDS011;3018;48.730;9.336;2023-02-28T09:30:30;8.85;;;7.75;;
5981;SDS011;3018;48.730;9.336;2023-02-28T09:32:56;9.88;;;7.55;;
5981;SDS011;3018;48.730;9.336;2023-02-28T09:35:23;8.13;;;7.07;;
5981;SDS011;3018;48.730;9.336;2023-02-28T09:37:51;10.70;;;7.90;;
5981;SDS011;3018;48.730;9.336;2023-02-28T09:40:18;9.63;;;7.75;;
5981;SDS011;3018;48.730;9.336;2023-02-28T09:42:46;7.93;;;7.13;;
5981;SDS011;3018;48.730;9.336;2023-02-28T09:45:17;8.65;;;7.15;;
5981;SDS011;3018;48.730;9.336;2023-02-28T09:47:46;14.32;;;8.88;;
5981;SDS011;3018;48.730;9.336;2023-02-28T09:50:16;8.25;;;7.45;;
5981;SDS011;3018;48.730;9.336;2023-02-28T09:52:43;11.20;;;7.63;;
5981;SDS011;3018;48.730;9.336;2023-02-28T09:55:17;9.02;;;7.93;;
5981;SDS011;3018;48.730;9.336;2023-02-28T09:57:45;8.00;;;7.00;;
5981;SDS011;3018;48.730;9.336;2023-02-28T10:00:15;8.48;;;7.30;;
5981;SDS011;3018;48.730;9.336;2023-02-28T10:02:58;10.13;;;7.97;;
5981;SDS011;3018;48.730;9.336;2023-02-28T10:05:26;8.10;;;7.38;;
5981;SDS011;3018;48.730;9.336;2023-02-28T10:07:56;10.52;;;7.50;;
5981;SDS011;3018;48.730;9.336;2023-02-28T10:10:27;11.20;;;7.32;;
5981;SDS011;3018;48.730;9.336;2023-02-28T10:12:55;8.70;;;7.05;;
5981;SDS011;3018;48.730;9.336;2023-02-28T10:15:24;8.35;;;7.53;;
5981;SDS011;3018;48.730;9.336;2023-02-28T10:17:53;8.23;;;7.43;;
5981;SDS011;3018;48.730;9.336;2023-02-28T10:20:20;12.13;;;7.95;;
5981;SDS011;3018;48.730;9.336;2023-02-28T10:22:50;9.23;;;8.05;;
5981;SDS011;3018;48.730;9.336;2023-02-28T10:25:18;8.85;;;7.95;;
5981;SDS011;3018;48.730;9.336;2023-02-28T10:27:45;10.07;;;7.82;;
5981;SDS011;3018;48.730;9.336;2023-02-28T10:30:12;9.27;;;8.35;;
5981;SDS011;3018;48.730;9.336;2023-02-28T10:32:41;9.27;;;7.80;;
5981;SDS011;3018;48.730;9.336;2023-02-28T10:35:10;9.40;;;8.38;;
5981;SDS011;3018;48.730;9.336;2023-02-28T10:37:41;12.77;;;8.40;;
5981;SDS011;3018;48.730;9.336;2023-02-28T10:40:11;9.15;;;7.78;;
5981;SDS011;3018;48.730;9.336;2023-02-28T10:42:54;12.95;;;7.78;;
5981;SDS011;3018;48.730;9.336;2023-02-28T10:45:20;9.18;;;7.88;;
5981;SDS011;3018;48.730;9.336;2023-02-28T10:47:51;8.20;;;7.38;;
5981;SDS011;3018;48.730;9.336;2023-02-28T10:50:26;9.88;;;8.10;;
5981;SDS011;3018;48.730;9.336;2023-02-28T10:52:53;9.50;;;8.50;;
5981;SDS011;3018;48.730;9.336;2023-02-28T10:55:21;9.20;;;7.95;;
5981;SDS011;3018;48.730;9.336;2023-02-28T10:57:47;8.95;;;8.13;;
5981;SDS011;3018;48.730;9.336;2023-02-28T11:00:15;10.15;;;7.97;;
5981;SDS011;3018;48.730;9.336;2023-02-28T11:02:41;11.00;;;8.30;;
5981;SDS011;3018;48.730;9.336;2023-02-28T11:05:26;12.68;;;7.97;;
5981;SDS011;3018;48.730;9.336;2023-02-28T11:07:53;8.13;;;7.32;;
5981;SDS011;3018;48.730;9.336;2023-02-28T11:10:20;11.25;;;8.02;;
5981;SDS011;3018;48.730;9.336;2023-02-28T11:12:48;8.35;;;7.13;;
5981;SDS011;3018;48.730;9.336;2023-02-28T11:15:19;8.65;;;7.50;;
5981;SDS011;3018;48.730;9.336;2023-02-28T11:17:52;9.45;;;7.63;;
5981;SDS011;3018;48.730;9.336;2023-02-28T11:20:20;8.20;;;7.47;;
5981;SDS011;3018;48.730;9.336;2023-02-28T11:22:49;10.02;;;7.97;;
5981;SDS011;3018;48.730;9.336;2023-02-28T11:25:19;8.63;;;7.65;;
5981;SDS011;3018;48.730;9.336;2023-02-28T11:27:47;15.18;;;8.20;;
5981;SDS011;3018;48.730;9.336;2023-02-28T11:30:27;7.60;;;6.90;;
5981;SDS011;3018;48.730;9.336;2023-02-28T11:32:54;8.20;;;7.40;;
5981;SDS011;3018;48.730;9.336;2023-02-28T11:35:21;8.65;;;7.85;;
5981;SDS011;3018;48.730;9.336;2023-02-28T11:37:51;9.07;;;7.10;;
5981;SDS011;3018;48.730;9.336;2023-02-28T11:40:18;8.60;;;7.00;;
5981;SDS011;3018;48.730;9.336;2023-02-28T11:42:48;7.95;;;7.22;;
5981;SDS011;3018;48.730;9.336;2023-02-28T11:45:18;10.05;;;7.32;;
5981;SDS011;3018;48.730;9.336;2023-02-28T11:47:47;7.82;;;7.05;;
5981;SDS011;3018;48.730;9.336;2023-02-28T11:50:21;7.57;;;6.88;;
5981;SDS011;3018;48.730;9.336;2023-02-28T11:52:52;8.45;;;7.30;;
5981;SDS011;3018;48.730;9.336;2023-02-28T11:55:19;7.85;;;6.93;;
5981;SDS011;3018;48.730;9.336;2023-02-28T12:00:42;7.20;;;6.60;;
5981;SDS011;3018;48.730;9.336;2023-02-28T12:03:14;7.22;;;6.63;;
5981;SDS011;3018;48.730;9.336;2023-02-28T12:05:42;8.35;;;7.32;;
5981;SDS011;3018;48.730;9.336;2023-02-28T12:08:18;7.47;;;6.78;;
5981;SDS011;3018;48.730;9.336;2023-02-28T12:10:52;8.60;;;7.78;;
5981;SDS011;3018;48.730;9.336;2023-02-28T12:13:24;9.98;;;7.68;;
5981;SDS011;3018;48.730;9.336;2023-02-28T12:18:38;7.32;;;6.63;;
5981;SDS011;3018;48.730;9.336;2023-02-28T12:21:09;7.63;;;6.82;;
5981;SDS011;3018;48.730;9.336;2023-02-28T12:23:43;40.97;;;25.27;;
5981;SDS011;3018;48.730;9.336;2023-02-28T12:26:14;25.77;;;17.23;;
5981;SDS011;3018;48.730;9.336;2023-02-28T12:28:43;8.15;;;7.38;;
5981;SDS011;3018;48.730;9.336;2023-02-28T12:31:13;7.75;;;6.95;;
5981;SDS011;3018;48.730;9.336;2023-02-28T12:33:40;10.40;;;8.10;;
5981;SDS011;3018;48.730;9.336;2023-02-28T12:36:09;8.38;;;7.47;;
5981;SDS011;3018;48.730;9.336;2023-02-28T12:38:38;8.98;;;7.30;;
5981;SDS011;3018;48.730;9.336;2023-02-28T12:41:09;8.68;;;7.80;;
5981;SDS011;3018;48.730;9.336;2023-02-28T12:43:37;9.23;;;7.53;;
5981;SDS011;3018;48.730;9.336;2023-02-28T12:46:06;7.75;;;7.03;;
5981;SDS011;3018;48.730;9.336;2023-02-28T12:48:37;8.35;;;7.60;;
5981;SDS011;3018;48.730;9.336;2023-02-28T12:51:06;11.02;;;7.60;;
5981;SDS011;3018;48.730;9.336;2023-02-28T12:53:35;8.23;;;7.53;;
5981;SDS011;3018;48.730;9.336;2023-02-28T12:56:09;7.90;;;7.20;;
5981;SDS011;3018;48.730;9.336;2023-02-28T12:58:41;8.07;;;7.45;;
5981;SDS011;3018;48.730;9.336;2023-02-28T13:01:21;7.47;;;6.72;;
5981;SDS011;3018;48.730;9.336;2023-02-28T13:04:07;8.43;;;7.63;;
5981;SDS011;3018;48.730;9.336;2023-02-28T13:06:51;9.15;;;7.60;;
5981;SDS011;3018;48.730;9.336;2023-02-28T13:09:22;9.02;;;8.15;;
5981;SDS011;3018;48.730;9.336;2023-02-28T13:11:50;9.68;;;8.63;;
5981;SDS011;3018;48.730;9.336;2023-02-28T13:14:22;8.95;;;7.80;;
5981;SDS011;3018;48.730;9.336;2023-02-28T13:16:51;8.35;;;7.55;;
5981;SDS011;3018;48.730;9.336;2023-02-28T13:19:19;7.93;;;7.20;;
5981;SDS011;3018;48.730;9.336;2023-02-28T13:21:46;8.75;;;7.88;;
5981;SDS011;3018;48.730;9.336;2023-02-28T13:24:27;11.30;;;7.63;;
5981;SDS011;3018;48.730;9.336;2023-02-28T13:29:58;7.43;;;6.80;;
5981;SDS011;3018;48.730;9.336;2023-02-28T13:32:35;7.78;;;7.13;;
5981;SDS011;3018;48.730;9.336;2023-02-28T13:40:40;7.60;;;6.88;;
5981;SDS011;3018;48.730;9.336;2023-02-28T13:43:07;8.18;;;6.97;;
5981;SDS011;3018;48.730;9.336;2023-02-28T13:45:35;8.57;;;7.70;;
5981;SDS011;3018;48.730;9.336;2023-02-28T13:48:03;8.63;;;7.75;;
5981;SDS011;3018;48.730;9.336;2023-02-28T13:50:31;8.25;;;7.43;;
5981;SDS011;3018;48.730;9.336;2023-02-28T13:53:02;7.88;;;7.15;;
5981;SDS011;3018;48.730;9.336;2023-02-28T13:55:32;7.60;;;6.95;;
5981;SDS011;3018;48.730;9.336;2023-02-28T13:58:10;10.00;;;7.38;;
5981;SDS011;3018;48.730;9.336;2023-02-28T14:00:45;8.40;;;7.13;;
5981;SDS011;3018;48.730;9.336;2023-02-28T14:03:28;8.68;;;7.28;;
5981;SDS011;3018;48.730;9.336;2023-02-28T14:06:08;8.45;;;7.68;;
5981;SDS011;3018;48.730;9.336;2023-02-28T14:08:34;7.93;;;7.10;;
5981;SDS011;3018;48.730;9.336;2023-02-28T14:11:03;7.75;;;6.95;;
5981;SDS011;3018;48.730;9.336;2023-02-28T14:13:37;8.48;;;7.60;;
5981;SDS011;3018;48.730;9.336;2023-02-28T14:16:10;7.90;;;7.20;;
5981;SDS011;3018;48.730;9.336;2023-02-28T14:18:38;8.40;;;7.53;;
5981;SDS011;3018;48.730;9.336;2023-02-28T14:21:10;9.13;;;7.72;;
5981;SDS011;3018;48.730;9.336;2023-02-28T14:23:46;8.60;;;7.00;;
5981;SDS011;3018;48.730;9.336;2023-02-28T14:26:19;8.70;;;7.78;;
5981;SDS011;3018;48.730;9.336;2023-02-28T14:28:55;7.82;;;7.13;;
5981;SDS011;3018;48.730;9.336;2023-02-28T14:31:29;7.97;;;7.18;;
5981;SDS011;3018;48.730;9.336;2023-02-28T14:34:03;7.63;;;7.00;;
5981;SDS011;3018;48.730;9.336;2023-02-28T14:36:32;8.35;;;7.03;;
5981;SDS011;3018;48.730;9.336;2023-02-28T14:38:59;7.82;;;6.72;;
5981;SDS011;3018;48.730;9.336;2023-02-28T14:41:29;9.45;;;7.30;;
5981;SDS011;3018;48.730;9.336;2023-02-28T14:43:56;7.57;;;6.88;;
5981;SDS011;3018;48.730;9.336;2023-02-28T14:46:22;7.80;;;7.03;;
5981;SDS011;3018;48.730;9.336;2023-02-28T14:48:51;8.63;;;7.65;;
5981;SDS011;3018;48.730;9.336;2023-02-28T14:51:18;7.93;;;7.22;;
5981;SDS011;3018;48.730;9.336;2023-02-28T14:53:46;8.27;;;7.40;;
5981;SDS011;3018;48.730;9.336;2023-02-28T14:56:19;8.38;;;7.45;;
5981;SDS011;3018;48.730;9.336;2023-02-28T14:58:50;9.77;;;7.22;;
5981;SDS011;3018;48.730;9.336;2023-02-28T15:01:18;8.80;;;7.82;;
5981;SDS011;3018;48.730;9.336;2023-02-28T15:03:46;7.93;;;7.22;;
5981;SDS011;3018;48.730;9.336;2023-02-28T15:06:14;8.10;;;7.40;;
5981;SDS011;3018;48.730;9.336;2023-02-28T15:08:42;10.55;;;7.70;;
5981;SDS011;3018;48.730;9.336;2023-02-28T15:11:11;8.20;;;7.38;;
5981;SDS011;3018;48.730;9.336;2023-02-28T15:13:39;8.82;;;7.60;;
5981;SDS011;3018;48.730;9.336;2023-02-28T15:16:06;10.63;;;7.50;;
5981;SDS011;3018;48.730;9.336;2023-02-28T15:18:38;7.75;;;6.95;;
5981;SDS011;3018;48.730;9.336;2023-02-28T15:21:07;8.73;;;7.82;;
5981;SDS011;3018;48.730;9.336;2023-02-28T15:23:38;8.63;;;7.05;;
5981;SDS011;3018;48.730;9.336;2023-02-28T15:26:06;10.73;;;7.03;;
5981;SDS011;3018;48.730;9.336;2023-02-28T15:28:32;10.18;;;7.63;;
5981;SDS011;3018;48.730;9.336;2023-02-28T15:30:59;9.95;;;7.88;;
5981;SDS011;3018;48.730;9.336;2023-02-28T15:33:26;8.35;;;7.55;;
5981;SDS011;3018;48.730;9.336;2023-02-28T15:36:03;8.10;;;7.40;;
5981;SDS011;3018;48.730;9.336;2023-02-28T15:38:29;7.28;;;6.57;;
5981;SDS011;3018;48.730;9.336;2023-02-28T15:41:00;7.88;;;7.13;;
5981;SDS011;3018;48.730;9.336;2023-02-28T15:43:28;8.25;;;7.47;;
5981;SDS011;3018;48.730;9.336;2023-02-28T15:45:56;8.48;;;7.68;;